Time;durP1;ratioP1;P1;durP2;ratioP2;P2;SDS_P1;SDS_P2;PMS_P1;PMS_P2;Temp;Humidity;BMP_temperature;BMP_pressure;BME280_temperature;BME280_humidity;BME280_pressure;Samples;Min_cycle;Max_cycle;Signal;HPM_P1;HPM_P2
2021/05/31 00:02:56;;;;;;;0.00;0.00;;;;;;;6.31;94.82;102769.41;10538545;28;20475;-66
2021/05/31 00:07:56;;;;;;;0.00;0.00;;;;;;;6.37;95.53;102762.94;10538272;28;20020;-66
2021/05/31 00:12:57;;;;;;;0.00;0.00;;;;;;;6.41;95.93;102763.59;10537992;28;20474;-66
2021/05/31 00:17:57;;;;;;;0.00;0.00;;;;;;;6.47;96.41;102757.97;10538244;28;20032;-66
2021/05/31 00:22:58;;;;;;;0.00;0.00;;;;;;;6.49;96.15;102759.59;10537114;28;20028;-64
2021/05/31 00:27:58;;;;;;;0.00;0.00;;;;;;;6.50;95.67;102750.69;10539161;28;20031;-66
2021/05/31 00:32:58;;;;;;;0.00;0.00;;;;;;;6.50;95.72;102757.78;10538888;28;20031;-66
2021/05/31 00:37:59;;;;;;;0.00;0.00;;;;;;;6.52;95.71;102756.78;10551545;22;20501;-69
2021/05/31 00:42:59;;;;;;;0.00;0.00;;;;;;;6.54;95.82;102736.38;10505614;28;20279;-69
2021/05/31 00:47:59;;;;;;;0.00;0.00;;;;;;;6.59;96.17;102757.28;10489703;28;20017;-69
2021/05/31 00:53:01;;;;;;;0.00;0.00;;;;;;;6.61;95.98;102759.84;10511014;28;20035;-70
2021/05/31 00:58:01;;;;;;;0.00;0.00;;;;;;;6.58;95.58;102763.53;10529473;28;20016;-69
2021/05/31 01:03:02;;;;;;;0.00;0.00;;;;;;;6.47;95.27;102763.25;10511276;28;20409;-70
2021/05/31 01:08:12;;;;;;;0.00;0.00;;;;;;;6.37;95.33;102756.75;10508206;28;20012;-69
2021/05/31 01:13:18;;;;;;;0.00;0.00;;;;;;;6.28;95.43;102761.63;10506258;28;20032;-70
2021/05/31 01:18:28;;;;;;;0.03;0.03;;;;;;;6.40;95.95;102753.94;10483821;28;20111;-69
2021/05/31 01:23:31;;;;;;;0.00;0.00;;;;;;;6.50;96.37;102758.63;10502735;28;20020;-68
2021/05/31 01:28:57;;;;;;;0.00;0.00;;;;;;;6.60;96.44;102752.81;10530917;28;20227;-68
2021/05/31 01:33:58;;;;;;;0.00;0.00;;;;;;;6.61;96.59;102744.81;10530511;28;20039;-69
2021/05/31 01:39:00;;;;;;;0.00;0.00;;;;;;;6.50;95.60;102752.50;10525411;28;20036;-68
2021/05/31 01:44:00;;;;;;;0.08;0.08;;;;;;;6.37;95.44;102754.09;10513551;28;20043;-68
2021/05/31 01:49:01;;;;;;;0.00;0.00;;;;;;;6.35;96.02;102744.47;10521033;28;20077;-68
2021/05/31 01:54:02;;;;;;;0.00;0.00;;;;;;;6.42;96.17;102747.63;10490789;28;20440;-69
2021/05/31 01:59:04;;;;;;;0.00;0.00;;;;;;;6.02;93.20;102743.66;10505624;28;20034;-67
2021/05/31 02:04:05;;;;;;;0.00;0.00;;;;;;;5.62;93.52;102743.09;10489857;28;20378;-68
2021/05/31 02:09:05;;;;;;;0.00;0.00;;;;;;;5.35;94.77;102738.31;10536210;28;20077;-67
2021/05/31 02:14:11;;;;;;;0.00;0.00;;;;;;;5.44;96.28;102735.19;10517070;28;20100;-68
2021/05/31 02:19:15;;;;;;;0.00;0.00;;;;;;;5.65;97.07;102729.72;10509087;28;20023;-68
2021/05/31 02:24:17;;;;;;;0.00;0.00;;;;;;;5.88;97.82;102732.00;10516831;28;20050;-69
2021/05/31 02:29:18;;;;;;;0.00;0.00;;;;;;;5.96;97.47;102728.97;10511125;28;20031;-69
2021/05/31 02:34:18;;;;;;;0.00;0.00;;;;;;;5.90;96.96;102729.25;10508819;28;20359;-68
2021/05/31 02:39:18;;;;;;;0.00;0.00;;;;;;;5.75;97.14;102724.78;10508985;28;20031;-68
2021/05/31 02:44:19;;;;;;;0.00;0.00;;;;;;;5.76;97.22;102724.72;10495720;28;20466;-69
2021/05/31 02:49:19;;;;;;;0.00;0.00;;;;;;;5.76;97.25;102726.50;10518818;28;20398;-69
2021/05/31 02:54:19;;;;;;;0.05;0.05;;;;;;;5.72;96.77;102735.53;10535681;28;20032;-68
2021/05/31 02:59:19;;;;;;;0.00;0.00;;;;;;;5.74;97.08;102733.66;10522827;28;20023;-68
2021/05/31 03:04:20;;;;;;;0.00;0.00;;;;;;;5.78;97.13;102733.41;10500816;28;20028;-69
2021/05/31 03:09:20;;;;;;;0.00;0.00;;;;;;;5.92;97.08;102723.91;10507309;28;20064;-69
2021/05/31 03:14:20;;;;;;;0.00;0.00;;;;;;;6.16;97.31;102735.81;10511303;28;20012;-69
2021/05/31 03:19:21;;;;;;;0.00;0.00;;;;;;;6.50;97.30;102729.53;10507174;28;20392;-69
2021/05/31 03:24:21;;;;;;;0.00;0.00;;;;;;;7.04;96.98;102737.06;10511465;28;20021;-68
2021/05/31 03:29:21;;;;;;;0.00;0.00;;;;;;;7.65;94.55;102738.72;10492984;28;20096;-68
2021/05/31 03:34:22;;;;;;;0.00;0.00;;;;;;;8.41;91.37;102739.31;10498555;28;20016;-68
2021/05/31 03:39:22;;;;;;;0.00;0.00;;;;;;;9.31;87.92;102741.38;10517083;28;20028;-68
2021/05/31 03:44:22;;;;;;;0.00;0.00;;;;;;;10.19;84.20;102734.28;10509453;28;20544;-69
2021/05/31 03:49:23;;;;;;;0.00;0.00;;;;;;;11.05;80.33;102736.03;10497385;28;20020;-68
2021/05/31 03:54:23;;;;;;;0.10;0.10;;;;;;;11.94;78.78;102739.00;10516612;28;20289;-68
2021/05/31 03:59:25;;;;;;;0.10;0.10;;;;;;;12.79;75.06;102731.19;10496020;28;20043;-69
2021/05/31 04:04:25;;;;;;;0.10;0.10;;;;;;;13.45;71.88;102733.69;10518747;28;20110;-68
2021/05/31 04:14:45;;;;;;;0.10;0.10;;;;;;;14.47;68.53;102728.31;10524538;28;20366;-68
2021/05/31 04:19:45;;;;;;;0.10;0.10;;;;;;;15.69;67.17;102723.34;10510677;28;20482;-69
2021/05/31 04:24:45;;;;;;;0.10;0.10;;;;;;;16.94;62.62;102720.91;10517744;28;20519;-69
2021/05/31 04:29:46;;;;;;;0.10;0.10;;;;;;;17.94;61.61;102710.63;10493905;28;20151;-64
2021/05/31 04:34:46;;;;;;;0.10;0.10;;;;;;;18.25;61.38;102695.56;10474497;28;20040;-65
2021/05/31 04:39:47;;;;;;;0.10;0.10;;;;;;;18.80;59.85;102690.66;10492007;28;20036;-65
2021/05/31 04:44:47;;;;;;;0.10;0.10;;;;;;;19.47;58.96;102696.66;10473530;28;20032;-65
2021/05/31 04:49:47;;;;;;;0.10;0.10;;;;;;;19.98;56.54;102701.72;10491607;28;20024;-65
2021/05/31 04:54:49;;;;;;;0.10;0.10;;;;;;;20.65;53.96;102696.63;10473209;28;20032;-65
2021/05/31 04:59:49;;;;;;;0.10;0.10;;;;;;;20.73;51.06;102688.44;10490919;28;20028;-65
2021/05/31 05:04:50;;;;;;;0.00;0.00;;;;;;;21.09;49.96;102698.66;10490905;28;20024;-65
2021/05/31 05:09:50;;;;;;;0.10;0.10;;;;;;;21.09;49.45;102697.78;10490827;28;20070;-65
2021/05/31 05:14:50;;;;;;;0.10;0.10;;;;;;;21.01;49.25;102693.28;10472675;28;20467;-65
2021/05/31 05:19:51;;;;;;;0.10;0.10;;;;;;;21.03;49.27;102694.81;10490780;28;20498;-65
2021/05/31 05:24:51;;;;;;;0.10;0.10;;;;;;;21.07;49.63;102689.84;10490534;28;20062;-65
2021/05/31 05:29:52;;;;;;;0.10;0.10;;;;;;;21.39;49.74;102687.88;10472367;28;20127;-65
2021/05/31 05:34:57;;;;;;;0.10;0.10;;;;;;;21.58;49.79;102681.88;10490776;28;20025;-65
2021/05/31 05:40:29;;;;;;;0.10;0.10;;;;;;;21.67;49.24;102694.34;10487626;28;20033;-65
2021/05/31 05:50:47;;;;;;;0.10;0.10;;;;;;;22.81;46.72;102677.47;10470225;28;20417;-64
2021/05/31 05:55:47;;;;;;;0.10;0.10;;;;;;;23.27;45.58;102683.31;10522629;28;20107;-64
2021/05/31 06:00:48;;;;;;;0.10;0.10;;;;;;;23.43;45.92;102679.41;10532137;28;20031;-65
2021/05/31 06:05:48;;;;;;;0.10;0.10;;;;;;;23.83;43.83;102676.94;10522056;28;20348;-64
2021/05/31 06:10:49;;;;;;;0.10;0.10;;;;;;;23.90;43.18;102683.22;10489293;28;20391;-65
2021/05/31 06:15:50;;;;;;;0.10;0.10;;;;;;;24.00;43.74;102682.00;10489438;28;20107;-64
2021/05/31 06:20:51;;;;;;;0.10;0.10;;;;;;;23.85;43.89;102683.03;10489393;28;20016;-65
2021/05/31 06:25:52;;;;;;;0.10;0.10;;;;;;;24.18;44.03;102691.31;10520858;28;20119;-65
2021/05/31 06:30:52;;;;;;;0.10;0.10;;;;;;;24.30;42.24;102677.94;10530018;28;20372;-65
2021/05/31 06:35:54;;;;;;;0.10;0.10;;;;;;;23.77;38.72;102680.47;10530679;28;20028;-65
2021/05/31 06:40:55;;;;;;;0.10;0.10;;;;;;;23.72;39.34;102681.06;10530466;28;20051;-65
2021/05/31 06:45:56;;;;;;;0.10;0.10;;;;;;;23.94;38.49;102686.41;10530941;28;20039;-64
2021/05/31 06:50:56;;;;;;;0.10;0.10;;;;;;;24.25;36.15;102685.03;10514621;28;20030;-65
2021/05/31 06:55:56;;;;;;;0.10;0.10;;;;;;;24.20;34.55;102693.81;10538119;28;20024;-65
2021/05/31 07:00:57;;;;;;;0.10;0.10;;;;;;;24.32;37.51;102691.34;10537561;28;20054;-64
2021/05/31 07:05:57;;;;;;;0.10;0.10;;;;;;;24.62;39.84;102692.69;10531104;28;20165;-65
2021/05/31 07:11:01;;;;;;;0.10;0.10;;;;;;;24.94;38.10;102687.47;10537094;28;20035;-64
2021/05/31 07:16:02;;;;;;;0.10;0.10;;;;;;;25.08;37.36;102691.84;10537318;28;20020;-64
2021/05/31 07:21:02;;;;;;;0.10;0.10;;;;;;;24.56;38.22;102690.78;10537499;28;20441;-65
2021/05/31 07:26:06;;;;;;;0.10;0.10;;;;;;;24.29;39.15;102683.56;10537047;28;20371;-65
2021/05/31 07:31:06;;;;;;;0.10;0.10;;;;;;;24.01;39.43;102689.16;10518192;28;20493;-65
2021/05/31 07:36:07;;;;;;;0.10;0.10;;;;;;;23.34;40.73;102686.06;10536387;28;20023;-64
2021/05/31 07:41:07;;;;;;;0.10;0.10;;;;;;;23.61;40.77;102678.03;10535775;28;20137;-64
2021/05/31 07:46:07;;;;;;;0.10;0.10;;;;;;;23.84;41.52;102673.16;10536082;28;20130;-64
2021/05/31 07:51:16;;;;;;;0.10;0.10;;;;;;;24.16;42.27;102676.22;10535665;28;20070;-65
2021/05/31 07:56:17;;;;;;;0.10;0.10;;;;;;;24.03;39.75;102671.56;10535511;28;20029;-64
2021/05/31 08:01:17;;;;;;;0.10;0.10;;;;;;;24.11;40.72;102684.97;10534654;28;20471;-64
2021/05/31 08:06:17;;;;;;;0.10;0.10;;;;;;;23.99;38.76;102664.84;10535136;28;20203;-64
2021/05/31 08:11:18;;;;;;;0.10;0.10;;;;;;;23.92;38.59;102667.56;10572199;22;20494;-66
2021/05/31 08:16:18;;;;;;;0.10;0.10;;;;;;;23.35;38.00;102667.84;10574703;28;20440;-66
2021/05/31 08:21:19;;;;;;;0.10;0.10;;;;;;;23.22;39.57;102672.16;10578261;27;20023;-66
2021/05/31 08:26:20;;;;;;;0.10;0.10;;;;;;;23.45;36.50;102669.19;10559967;28;20036;-66
2021/05/31 08:31:20;;;;;;;0.30;0.30;;;;;;;23.01;37.23;102658.66;10579024;28;20020;-65
2021/05/31 08:36:22;;;;;;;0.10;0.10;;;;;;;22.60;36.81;102659.28;10579396;27;20419;-65
2021/05/31 08:41:22;;;;;;;0.10;0.10;;;;;;;22.80;36.87;102659.47;10578219;28;20314;-65
2021/05/31 08:46:22;;;;;;;0.10;0.10;;;;;;;22.83;37.95;102657.22;10578212;28;20099;-65
2021/05/31 08:51:23;;;;;;;0.10;0.10;;;;;;;22.65;39.60;102656.84;10577569;28;20085;-66
2021/05/31 08:56:23;;;;;;;0.10;0.10;;;;;;;22.15;37.54;102658.59;10577507;28;20031;-66
2021/05/31 09:01:24;;;;;;;0.10;0.10;;;;;;;22.25;38.63;102650.16;10576879;28;20019;-66
2021/05/31 09:06:26;;;;;;;0.10;0.10;;;;;;;22.07;37.13;102640.56;10577155;28;20019;-67
2021/05/31 09:11:28;;;;;;;0.10;0.10;;;;;;;21.87;41.37;102639.47;10566690;28;20028;-68
2021/05/31 09:16:29;;;;;;;0.10;0.10;;;;;;;21.73;39.25;102634.94;10570953;28;20031;-68
2021/05/31 09:21:42;;;;;;;0.10;0.10;;;;;;;22.24;37.65;102640.34;10574612;28;20047;-68
2021/05/31 09:26:44;;;;;;;0.00;0.00;;;;;;;22.13;39.00;102641.66;10574910;28;20023;-68
2021/05/31 09:31:44;;;;;;;0.10;0.10;;;;;;;21.71;38.64;102648.69;10574864;28;20094;-68
2021/05/31 09:36:54;;;;;;;0.10;0.10;;;;;;;21.74;43.79;102640.19;10574574;28;20110;-68
2021/05/31 09:42:21;;;;;;;0.10;0.10;;;;;;;21.43;39.34;102635.78;10574215;28;20253;-68
2021/05/31 09:47:32;;;;;;;0.10;0.10;;;;;;;21.38;41.98;102629.25;10543966;28;20039;-68
2021/05/31 09:52:35;;;;;;;0.10;0.10;;;;;;;21.15;46.47;102622.03;10540534;28;20115;-67
2021/05/31 09:57:38;;;;;;;0.10;0.10;;;;;;;21.06;47.47;102620.44;10552086;28;20547;-68
2021/05/31 10:07:58;;;;;;;0.10;0.10;;;;;;;20.99;45.48;102605.94;10520540;28;1062966;-68
2021/05/31 10:13:00;;;;;;;0.10;0.10;;;;;;;21.16;42.92;102609.31;10545643;28;20084;-67
2021/05/31 10:18:02;;;;;;;0.10;0.10;;;;;;;21.09;42.16;102606.53;10553326;28;20024;-68
2021/05/31 10:23:04;;;;;;;0.00;0.00;;;;;;;21.38;45.21;102604.84;10544731;28;20592;-68
2021/05/31 10:28:15;;;;;;;0.10;0.10;;;;;;;21.60;44.62;102584.09;10553945;28;20035;-68
2021/05/31 10:33:21;;;;;;;0.00;0.00;;;;;;;21.35;40.80;102597.94;10563556;28;20486;-68
2021/05/31 10:38:23;;;;;;;0.10;0.10;;;;;;;21.48;45.80;102578.31;10553662;28;20016;-68
2021/05/31 10:43:25;;;;;;;0.10;0.10;;;;;;;21.48;44.89;102573.72;10547884;28;20020;-68
2021/05/31 10:48:26;;;;;;;0.10;0.10;;;;;;;21.82;38.08;102569.56;10553280;28;20020;-67
2021/05/31 10:53:37;;;;;;;0.10;0.10;;;;;;;21.75;44.29;102575.91;10547771;27;20386;-68
2021/05/31 10:58:41;;;;;;;0.10;0.10;;;;;;;21.55;44.37;102573.81;10532896;28;20106;-68
2021/05/31 11:04:00;;;;;;;0.10;0.10;;;;;;;21.51;46.13;102575.22;10550051;28;20431;-67
2021/05/31 11:09:08;;;;;;;0.10;0.10;;;;;;;21.60;42.92;102565.09;10572367;28;20042;-66
2021/05/31 11:14:09;;;;;;;0.00;0.00;;;;;;;21.90;41.83;102560.44;10535811;28;20481;-66
2021/05/31 11:19:10;;;;;;;0.10;0.10;;;;;;;22.05;45.16;102557.66;10544655;28;20023;-67
2021/05/31 11:24:15;;;;;;;0.10;0.10;;;;;;;21.90;47.42;102553.16;10548339;28;20016;-66
2021/05/31 11:29:15;;;;;;;0.10;0.10;;;;;;;21.98;45.41;102548.63;10574472;28;20057;-66
2021/05/31 11:34:15;;;;;;;0.00;0.00;;;;;;;21.88;43.91;102547.06;10564610;28;20112;-66
2021/05/31 11:39:18;;;;;;;0.10;0.10;;;;;;;21.97;45.36;102536.94;10535894;28;20024;-66
2021/05/31 11:44:27;;;;;;;0.10;0.10;;;;;;;22.05;44.40;102544.97;10536548;28;20021;-67
2021/05/31 11:49:29;;;;;;;0.10;0.10;;;;;;;22.01;45.22;102535.50;10541903;28;20039;-67
2021/05/31 11:54:33;;;;;;;0.10;0.10;;;;;;;22.12;46.53;102531.44;10547324;28;20023;-66
2021/05/31 11:59:36;;;;;;;0.10;0.10;;;;;;;22.10;48.10;102528.91;10576038;28;20355;-66
2021/05/31 12:04:37;;;;;;;0.05;0.05;;;;;;;22.20;45.70;102533.22;10533826;28;20035;-67
2021/05/31 12:09:39;;;;;;;0.10;0.10;;;;;;;22.04;47.31;102535.13;10535782;28;20578;-67
2021/05/31 12:14:42;;;;;;;0.10;0.10;;;;;;;22.30;44.16;102522.88;10535484;28;20104;-67
2021/05/31 12:19:44;;;;;;;0.10;0.10;;;;;;;22.31;45.70;102517.25;10563048;28;20383;-67
2021/05/31 12:24:47;;;;;;;0.10;0.10;;;;;;;22.29;42.98;102513.88;10564911;28;20037;-67
2021/05/31 12:29:48;;;;;;;0.10;0.10;;;;;;;22.38;44.05;102506.44;10555406;28;20036;-67
2021/05/31 12:34:49;;;;;;;0.10;0.10;;;;;;;22.33;43.68;102503.47;10534808;28;20036;-67
2021/05/31 12:39:51;;;;;;;0.10;0.10;;;;;;;22.17;47.46;102512.75;10555298;28;20311;-67
2021/05/31 12:44:51;;;;;;;0.10;0.10;;;;;;;22.12;43.50;102498.88;10534150;28;20016;-67
2021/05/31 12:49:54;;;;;;;0.10;0.10;;;;;;;22.32;41.33;102490.94;10539758;28;20486;-68
2021/05/31 12:55:07;;;;;;;0.10;0.10;;;;;;;22.29;49.25;102488.63;10522965;28;20467;-67
2021/05/31 13:00:12;;;;;;;0.10;0.10;;;;;;;22.23;47.47;102481.28;10533545;28;20028;-66
2021/05/31 13:05:15;;;;;;;0.10;0.10;;;;;;;22.07;46.86;102475.03;10533672;28;20027;-66
2021/05/31 13:10:21;;;;;;;0.10;0.10;;;;;;;21.95;47.51;102473.88;10548565;28;20028;-67
2021/05/31 13:15:35;;;;;;;0.10;0.10;;;;;;;22.09;46.10;102472.13;10523261;28;20018;-67
2021/05/31 13:20:36;;;;;;;0.10;0.10;;;;;;;22.09;41.81;102467.53;10528687;28;20039;-67
2021/05/31 13:25:38;;;;;;;0.10;0.10;;;;;;;22.16;47.64;102470.31;10538693;27;20028;-68
2021/05/31 13:30:39;;;;;;;0.10;0.10;;;;;;;22.17;47.15;102460.31;10532482;28;20035;-66
2021/05/31 13:35:41;;;;;;;0.10;0.10;;;;;;;22.12;47.84;102450.88;10546580;28;20024;-68
2021/05/31 13:40:49;;;;;;;0.10;0.10;;;;;;;22.19;49.83;102452.81;10513722;28;20016;-68
2021/05/31 13:45:53;;;;;;;0.10;0.10;;;;;;;22.20;42.72;102443.66;10532428;28;20034;-68
2021/05/31 13:50:56;;;;;;;0.00;0.00;;;;;;;22.32;48.73;102442.09;10553382;28;20065;-67
2021/05/31 13:55:56;;;;;;;0.10;0.10;;;;;;;22.29;50.96;102439.75;10538024;28;20107;-67
2021/05/31 14:00:57;;;;;;;0.10;0.10;;;;;;;22.30;46.57;102433.28;10535734;28;20874;-68
2021/05/31 14:05:57;;;;;;;0.10;0.10;;;;;;;22.24;50.21;102436.78;10546192;28;20032;-67
2021/05/31 14:10:58;;;;;;;0.10;0.10;;;;;;;22.14;49.25;102435.25;10539034;28;20031;-66
2021/05/31 14:15:58;;;;;;;0.10;0.10;;;;;;;22.08;44.92;102422.47;10561264;22;20539;-67
2021/05/31 14:20:59;;;;;;;0.10;0.10;;;;;;;22.26;47.30;102415.72;10570660;28;20030;-70
2021/05/31 14:25:59;;;;;;;0.03;0.03;;;;;;;22.39;48.10;102410.38;10560399;28;20027;-68
2021/05/31 14:30:59;;;;;;;0.10;0.10;;;;;;;22.29;47.23;102412.63;10544056;28;20335;-69
2021/05/31 14:36:01;;;;;;;0.10;0.10;;;;;;;22.12;46.03;102406.63;10554176;28;20016;-68
2021/05/31 14:41:03;;;;;;;0.10;0.10;;;;;;;22.18;47.95;102402.31;10538563;28;20013;-67
2021/05/31 14:46:04;;;;;;;0.10;0.10;;;;;;;22.25;46.92;102393.19;10538990;28;20054;-68
2021/05/31 14:51:11;;;;;;;0.10;0.10;;;;;;;22.30;48.42;102389.84;10520228;28;20020;-69
2021/05/31 14:56:12;;;;;;;0.10;0.10;;;;;;;22.27;48.60;102382.94;10524198;28;20424;-68
2021/05/31 15:01:12;;;;;;;0.10;0.10;;;;;;;22.23;49.68;102381.69;10549319;28;20035;-68
2021/05/31 15:06:13;;;;;;;0.08;0.08;;;;;;;22.10;49.00;102390.53;10568127;28;20243;-68
2021/05/31 15:11:13;;;;;;;0.10;0.10;;;;;;;21.95;43.75;102378.09;10539593;28;20048;-69
2021/05/31 15:16:14;;;;;;;0.10;0.10;;;;;;;21.97;48.91;102376.03;10568023;28;20285;-69
2021/05/31 15:21:15;;;;;;;0.10;0.10;;;;;;;21.98;46.86;102370.41;10577089;28;20536;-69
2021/05/31 15:26:15;;;;;;;0.10;0.10;;;;;;;22.21;46.75;102363.91;10535642;28;20045;-70
2021/05/31 15:31:16;;;;;;;0.10;0.10;;;;;;;22.08;48.35;102361.94;10576094;28;20027;-70
2021/05/31 15:36:18;;;;;;;0.10;0.10;;;;;;;21.77;45.51;102368.56;10542470;28;20012;-68
2021/05/31 15:41:18;;;;;;;0.10;0.10;;;;;;;21.71;47.18;102353.09;10543843;28;20489;-69
2021/05/31 15:46:18;;;;;;;0.10;0.10;;;;;;;21.87;48.40;102358.22;10533203;28;20020;-69
2021/05/31 15:51:20;;;;;;;0.10;0.10;;;;;;;21.80;48.92;102354.63;10547651;28;20482;-70
2021/05/31 15:56:20;;;;;;;0.10;0.10;;;;;;;21.77;49.79;102348.75;10532352;28;20092;-68
2021/05/31 16:01:20;;;;;;;0.10;0.10;;;;;;;21.67;48.33;102336.38;10552618;28;20452;-68
2021/05/31 16:06:21;;;;;;;0.10;0.10;;;;;;;21.45;48.59;102332.84;10573990;28;20509;-68
2021/05/31 16:11:21;;;;;;;0.10;0.10;;;;;;;21.53;51.52;102341.88;10577586;28;20372;-69
2021/05/31 16:16:22;;;;;;;0.00;0.00;;;;;;;21.45;48.14;102327.41;10559158;28;20385;-69
2021/05/31 16:21:22;;;;;;;0.10;0.10;;;;;;;21.45;49.95;102318.47;10577174;28;20249;-69
2021/05/31 16:26:22;;;;;;;0.10;0.10;;;;;;;21.31;47.23;102313.91;10564006;28;20268;-69
2021/05/31 16:31:23;;;;;;;0.10;0.10;;;;;;;21.19;49.15;102319.00;10573867;28;20020;-68
2021/05/31 16:36:24;;;;;;;0.10;0.10;;;;;;;21.08;50.51;102314.09;10553293;28;20106;-68
2021/05/31 16:41:26;;;;;;;0.10;0.10;;;;;;;20.96;50.79;102319.19;10576114;28;20007;-68
2021/05/31 16:46:27;;;;;;;0.10;0.10;;;;;;;20.89;49.28;102307.47;10541203;28;20039;-69
2021/05/31 16:51:28;;;;;;;0.10;0.10;;;;;;;20.88;48.04;102301.19;10534005;28;20035;-68
2021/05/31 16:56:28;;;;;;;0.10;0.10;;;;;;;20.86;48.86;102303.25;10521460;28;20024;-69
2021/05/31 17:01:28;;;;;;;0.10;0.10;;;;;;;20.84;46.93;102293.66;10566149;28;20007;-69
2021/05/31 17:06:34;;;;;;;0.10;0.10;;;;;;;20.79;50.23;102297.75;10559408;28;20240;-69
2021/05/31 17:22:12;;;;;;;0.10;0.10;;;;;;;20.43;52.76;102288.78;10543520;28;20028;-69
2021/05/31 17:27:13;;;;;;;0.10;0.10;;;;;;;20.34;51.70;102280.75;10539052;28;20027;-68
2021/05/31 17:32:31;;;;;;;0.00;0.00;;;;;;;20.28;49.18;102289.63;10562609;28;20438;-68
2021/05/31 17:37:32;;;;;;;0.10;0.10;;;;;;;20.24;51.97;102285.59;10573095;28;20265;-69
2021/05/31 17:42:47;;;;;;;0.00;0.00;;;;;;;19.97;55.59;102286.25;10574447;28;20015;-69
2021/05/31 17:47:48;;;;;;;0.10;0.10;;;;;;;19.77;56.19;102275.97;10574890;28;20067;-69
2021/05/31 17:52:48;;;;;;;0.10;0.10;;;;;;;19.65;56.77;102269.34;10557753;28;20024;-69
2021/05/31 17:57:50;;;;;;;0.10;0.10;;;;;;;19.58;56.72;102268.41;10574190;28;20032;-69
2021/05/31 18:02:51;;;;;;;0.10;0.10;;;;;;;19.43;57.56;102263.81;10573679;28;20035;-69
2021/05/31 18:07:57;;;;;;;0.10;0.10;;;;;;;19.21;59.60;102264.66;10574105;28;20389;-68
2021/05/31 18:12:58;;;;;;;0.03;0.03;;;;;;;19.14;57.66;102258.28;10570904;28;20028;-68
2021/05/31 18:17:58;;;;;;;0.10;0.10;;;;;;;19.16;57.02;102256.25;10574328;28;20059;-69
2021/05/31 18:22:59;;;;;;;0.10;0.10;;;;;;;19.12;58.63;102260.34;10556153;28;20069;-69
2021/05/31 18:27:59;;;;;;;0.10;0.10;;;;;;;18.95;61.83;102265.03;10573423;28;20026;-69
2021/05/31 18:33:00;;;;;;;0.10;0.10;;;;;;;18.77;61.79;102260.75;10554128;28;20024;-69
2021/05/31 18:38:00;;;;;;;0.10;0.10;;;;;;;18.65;60.69;102259.47;10555001;28;20020;-68
2021/05/31 18:43:01;;;;;;;0.10;0.10;;;;;;;18.54;60.66;102258.00;10573183;28;20502;-68
2021/05/31 18:48:02;;;;;;;0.10;0.10;;;;;;;18.42;61.02;102263.97;10566230;28;20439;-69
2021/05/31 18:53:02;;;;;;;0.10;0.10;;;;;;;18.25;61.33;102255.09;10578230;28;20023;-69
2021/05/31 18:58:03;;;;;;;0.10;0.10;;;;;;;18.07;62.67;102261.56;10580776;28;20030;-69
2021/05/31 19:03:05;;;;;;;0.10;0.10;;;;;;;17.89;62.79;102269.06;10556234;28;21223;-68
2021/05/31 19:08:06;;;;;;;0.00;0.00;;;;;;;17.73;63.53;102277.13;10535805;28;20016;-69
2021/05/31 19:13:06;;;;;;;0.10;0.10;;;;;;;17.58;63.76;102271.59;10537433;28;20089;-69
2021/05/31 19:18:07;;;;;;;0.10;0.10;;;;;;;17.41;64.18;102273.44;10542530;28;20081;-68
2021/05/31 19:23:07;;;;;;;0.10;0.10;;;;;;;17.26;64.61;102278.66;10565483;28;20431;-68
2021/05/31 19:28:08;;;;;;;0.10;0.10;;;;;;;17.03;65.73;102274.97;10560255;28;20024;-69
2021/05/31 19:33:09;;;;;;;0.10;0.10;;;;;;;16.81;65.51;102284.50;10576298;28;20020;-68
2021/05/31 19:38:09;;;;;;;0.10;0.10;;;;;;;16.63;66.46;102290.81;10579513;28;20015;-68
2021/05/31 19:43:13;;;;;;;0.10;0.10;;;;;;;16.41;66.53;102299.50;10578251;28;20024;-69
2021/05/31 19:48:13;;;;;;;0.10;0.10;;;;;;;16.17;68.15;102292.97;10578673;28;20099;-69
2021/05/31 19:53:25;;;;;;;0.10;0.10;;;;;;;15.95;68.22;102301.59;10575821;28;20119;-68
2021/05/31 20:03:45;;;;;;;0.10;0.10;;;;;;;15.40;71.41;102308.88;10578239;28;20114;-68
2021/05/31 20:08:45;;;;;;;0.10;0.10;;;;;;;14.91;72.64;102313.78;10541442;28;20521;-70
2021/05/31 20:13:46;;;;;;;0.10;0.10;;;;;;;14.73;74.23;102314.75;10563717;28;20051;-68
2021/05/31 20:18:47;;;;;;;0.10;0.10;;;;;;;14.57;73.75;102326.13;10519801;28;20053;-69
2021/05/31 20:23:48;;;;;;;0.10;0.10;;;;;;;14.45;73.69;102323.59;10551201;22;20028;-64
2021/05/31 20:28:48;;;;;;;0.10;0.10;;;;;;;14.36;73.61;102323.66;10541821;27;20108;-64
2021/05/31 20:33:49;;;;;;;0.10;0.10;;;;;;;14.29;73.75;102319.88;10510175;28;20023;-64
2021/05/31 20:38:49;;;;;;;0.15;0.15;;;;;;;14.15;73.83;102329.22;10524406;28;20040;-64
2021/05/31 20:43:50;;;;;;;0.10;0.10;;;;;;;13.93;74.29;102322.38;10492853;28;20040;-66
2021/05/31 20:48:50;;;;;;;0.10;0.10;;;;;;;13.76;74.74;102318.63;10506377;28;20032;-66
2021/05/31 20:53:50;;;;;;;0.10;0.10;;;;;;;13.64;75.02;102314.38;10499684;28;20025;-66
2021/05/31 20:58:51;;;;;;;0.10;0.10;;;;;;;13.54;75.33;102320.59;10491974;28;20536;-65
2021/05/31 21:03:52;;;;;;;0.10;0.10;;;;;;;13.45;74.98;102312.59;10518136;28;20027;-65
2021/05/31 21:08:59;;;;;;;0.10;0.10;;;;;;;13.36;74.78;102316.97;10533298;28;20538;-65
2021/05/31 21:14:00;;;;;;;0.10;0.10;;;;;;;13.24;75.16;102323.41;10520327;28;20513;-65
2021/05/31 21:19:02;;;;;;;0.10;0.10;;;;;;;13.04;75.99;102312.69;10502196;28;20051;-65
2021/05/31 21:24:03;;;;;;;0.10;0.10;;;;;;;12.91;77.26;102329.00;10513168;28;20028;-65
2021/05/31 21:29:03;;;;;;;0.10;0.10;;;;;;;12.76;78.02;102318.81;10518068;28;20031;-65
2021/05/31 21:34:03;;;;;;;0.10;0.10;;;;;;;12.64;78.26;102324.28;10519741;28;20027;-65
2021/05/31 21:39:04;;;;;;;0.10;0.10;;;;;;;12.50;78.84;102324.63;10532369;28;20013;-65
2021/05/31 21:44:04;;;;;;;0.10;0.10;;;;;;;12.36;79.73;102323.19;10532634;28;20348;-65
2021/05/31 21:49:04;;;;;;;0.10;0.10;;;;;;;12.28;79.24;102324.84;10523929;28;20024;-66
2021/05/31 21:54:05;;;;;;;0.10;0.10;;;;;;;12.17;79.65;102320.44;10505487;28;20017;-65
2021/05/31 21:59:05;;;;;;;0.10;0.10;;;;;;;12.06;79.18;102329.38;10472657;28;20059;-66
2021/05/31 22:04:05;;;;;;;0.10;0.10;;;;;;;11.96;78.96;102323.97;10509026;28;20024;-65
2021/05/31 22:09:06;;;;;;;0.10;0.10;;;;;;;11.91;79.06;102328.84;10504361;28;20020;-65
2021/05/31 22:19:07;;;;;;;0.10;0.10;;;;;;;11.83;78.88;102317.94;10490282;28;20028;-65
2021/05/31 22:24:07;;;;;;;0.10;0.10;;;;;;;11.84;78.79;102314.31;10525862;28;20274;-65
2021/05/31 22:34:26;;;;;;;0.10;0.10;;;;;;;11.72;78.66;102318.88;10527113;28;20028;-65
2021/05/31 22:39:28;;;;;;;0.10;0.10;;;;;;;11.62;78.53;102314.44;10531064;28;20016;-64
2021/05/31 23:16:07;;;;;;;0.10;0.10;;;;;;;11.30;78.46;102308.16;10530246;28;20020;-64
2021/05/31 23:21:08;;;;;;;0.10;0.10;;;;;;;11.22;78.44;102315.09;10525301;28;20028;-64
2021/05/31 23:26:08;;;;;;;0.10;0.10;;;;;;;11.08;79.00;102309.09;10537489;28;20080;-64
2021/05/31 23:31:09;;;;;;;0.10;0.10;;;;;;;10.96;79.46;102314.59;10528192;28;20020;-64
2021/05/31 23:36:10;;;;;;;0.10;0.10;;;;;;;10.87;80.88;102310.84;10503538;28;20021;-64
2021/05/31 23:41:12;;;;;;;0.00;0.00;;;;;;;10.97;80.58;102308.28;10515165;28;20020;-64
2021/05/31 23:46:13;;;;;;;0.10;0.10;;;;;;;10.75;80.18;102304.69;10536882;28;20115;-64
2021/05/31 23:51:28;;;;;;;0.10;0.10;;;;;;;10.45;81.22;102302.69;10515440;28;20050;-64
2021/05/31 23:56:29;;;;;;;0.10;0.10;;;;;;;10.25;81.73;102308.72;10536361;28;20206;-64
